sensor_id;sensor_type;location;lat;lon;timestamp;P1;durP1;ratioP1;P2;durP2;ratioP2
3274;SDS011;1649;53.672;10.064;2022-10-16T00:01:58;16.20;;;10.87;;
3274;SDS011;1649;53.672;10.064;2022-10-16T00:04:23;17.20;;;10.47;;
3274;SDS011;1649;53.672;10.064;2022-10-16T00:06:49;17.33;;;10.40;;
3274;SDS011;1649;53.672;10.064;2022-10-16T00:09:14;18.30;;;10.23;;
3274;SDS011;1649;53.672;10.064;2022-10-16T00:11:40;15.53;;;10.53;;
3274;SDS011;1649;53.672;10.064;2022-10-16T00:14:10;16.10;;;10.33;;
3274;SDS011;1649;53.672;10.064;2022-10-16T00:16:38;15.70;;;9.87;;
3274;SDS011;1649;53.672;10.064;2022-10-16T00:19:04;12.70;;;8.07;;
3274;SDS011;1649;53.672;10.064;2022-10-16T00:21:30;13.67;;;8.70;;
3274;SDS011;1649;53.672;10.064;2022-10-16T00:23:59;12.87;;;8.43;;
3274;SDS011;1649;53.672;10.064;2022-10-16T00:26:28;13.47;;;8.73;;
3274;SDS011;1649;53.672;10.064;2022-10-16T00:28:55;16.80;;;7.87;;
3274;SDS011;1649;53.672;10.064;2022-10-16T00:31:21;13.67;;;7.80;;
3274;SDS011;1649;53.672;10.064;2022-10-16T00:33:48;12.50;;;7.70;;
3274;SDS011;1649;53.672;10.064;2022-10-16T00:36:15;12.93;;;6.60;;
3274;SDS011;1649;53.672;10.064;2022-10-16T00:38:42;10.23;;;6.40;;
3274;SDS011;1649;53.672;10.064;2022-10-16T00:41:10;11.00;;;5.80;;
3274;SDS011;1649;53.672;10.064;2022-10-16T00:43:43;12.93;;;6.33;;
3274;SDS011;1649;53.672;10.064;2022-10-16T00:51:23;8.57;;;4.90;;
3274;SDS011;1649;53.672;10.064;2022-10-16T00:53:52;11.27;;;4.90;;
3274;SDS011;1649;53.672;10.064;2022-10-16T00:56:18;8.70;;;4.73;;
3274;SDS011;1649;53.672;10.064;2022-10-16T00:58:44;7.40;;;4.13;;
3274;SDS011;1649;53.672;10.064;2022-10-16T01:01:09;8.33;;;3.83;;
3274;SDS011;1649;53.672;10.064;2022-10-16T01:03:35;10.23;;;4.10;;
3274;SDS011;1649;53.672;10.064;2022-10-16T01:06:05;8.10;;;4.40;;
3274;SDS011;1649;53.672;10.064;2022-10-16T01:09:05;8.73;;;4.07;;
3274;SDS011;1649;53.672;10.064;2022-10-16T01:11:44;8.57;;;4.00;;
3274;SDS011;1649;53.672;10.064;2022-10-16T01:14:39;6.23;;;3.27;;
3274;SDS011;1649;53.672;10.064;2022-10-16T01:17:18;10.80;;;4.13;;
3274;SDS011;1649;53.672;10.064;2022-10-16T01:20:00;7.17;;;3.40;;
3274;SDS011;1649;53.672;10.064;2022-10-16T01:25:47;5.27;;;3.00;;
3274;SDS011;1649;53.672;10.064;2022-10-16T01:28:17;9.30;;;3.60;;
3274;SDS011;1649;53.672;10.064;2022-10-16T01:30:46;6.97;;;3.00;;
3274;SDS011;1649;53.672;10.064;2022-10-16T01:33:20;6.50;;;3.07;;
3274;SDS011;1649;53.672;10.064;2022-10-16T01:35:50;7.97;;;3.13;;
3274;SDS011;1649;53.672;10.064;2022-10-16T01:38:21;10.93;;;3.50;;
3274;SDS011;1649;53.672;10.064;2022-10-16T01:40:49;7.83;;;2.53;;
3274;SDS011;1649;53.672;10.064;2022-10-16T01:43:25;6.57;;;3.10;;
3274;SDS011;1649;53.672;10.064;2022-10-16T01:45:53;9.23;;;3.27;;
3274;SDS011;1649;53.672;10.064;2022-10-16T01:48:20;7.17;;;2.83;;
3274;SDS011;1649;53.672;10.064;2022-10-16T01:50:50;6.53;;;3.00;;
3274;SDS011;1649;53.672;10.064;2022-10-16T01:53:24;6.63;;;2.80;;
3274;SDS011;1649;53.672;10.064;2022-10-16T01:55:51;8.83;;;3.60;;
3274;SDS011;1649;53.672;10.064;2022-10-16T01:58:19;6.07;;;2.67;;
3274;SDS011;1649;53.672;10.064;2022-10-16T02:00:46;7.10;;;2.50;;
3274;SDS011;1649;53.672;10.064;2022-10-16T02:03:14;5.37;;;2.63;;
3274;SDS011;1649;53.672;10.064;2022-10-16T02:05:47;7.43;;;2.93;;
3274;SDS011;1649;53.672;10.064;2022-10-16T02:08:17;5.67;;;3.03;;
3274;SDS011;1649;53.672;10.064;2022-10-16T02:10:44;8.10;;;2.50;;
3274;SDS011;1649;53.672;10.064;2022-10-16T02:13:15;6.67;;;3.00;;
3274;SDS011;1649;53.672;10.064;2022-10-16T02:16:01;8.13;;;2.83;;
3274;SDS011;1649;53.672;10.064;2022-10-16T02:18:26;6.03;;;2.53;;
3274;SDS011;1649;53.672;10.064;2022-10-16T02:23:55;9.93;;;2.97;;
3274;SDS011;1649;53.672;10.064;2022-10-16T02:26:52;6.70;;;3.20;;
3274;SDS011;1649;53.672;10.064;2022-10-16T02:29:45;8.20;;;3.40;;
3274;SDS011;1649;53.672;10.064;2022-10-16T02:32:19;6.40;;;3.13;;
3274;SDS011;1649;53.672;10.064;2022-10-16T02:34:49;9.37;;;3.13;;
3274;SDS011;1649;53.672;10.064;2022-10-16T02:37:16;7.00;;;3.33;;
3274;SDS011;1649;53.672;10.064;2022-10-16T02:39:43;7.07;;;2.90;;
3274;SDS011;1649;53.672;10.064;2022-10-16T02:42:12;7.57;;;2.90;;
3274;SDS011;1649;53.672;10.064;2022-10-16T02:44:38;5.67;;;2.87;;
3274;SDS011;1649;53.672;10.064;2022-10-16T02:47:04;10.33;;;3.07;;
3274;SDS011;1649;53.672;10.064;2022-10-16T02:49:29;7.00;;;2.90;;
3274;SDS011;1649;53.672;10.064;2022-10-16T02:51:55;7.93;;;2.50;;
3274;SDS011;1649;53.672;10.064;2022-10-16T02:54:20;6.83;;;3.13;;
3274;SDS011;1649;53.672;10.064;2022-10-16T02:56:46;6.73;;;2.80;;
3274;SDS011;1649;53.672;10.064;2022-10-16T02:59:11;15.33;;;2.90;;
3274;SDS011;1649;53.672;10.064;2022-10-16T03:01:37;8.07;;;2.87;;
3274;SDS011;1649;53.672;10.064;2022-10-16T03:04:02;9.27;;;2.67;;
3274;SDS011;1649;53.672;10.064;2022-10-16T03:06:28;6.00;;;2.70;;
3274;SDS011;1649;53.672;10.064;2022-10-16T03:08:53;6.50;;;2.83;;
3274;SDS011;1649;53.672;10.064;2022-10-16T03:11:19;5.77;;;2.70;;
3274;SDS011;1649;53.672;10.064;2022-10-16T03:13:44;7.40;;;2.40;;
3274;SDS011;1649;53.672;10.064;2022-10-16T03:16:10;6.90;;;2.30;;
3274;SDS011;1649;53.672;10.064;2022-10-16T03:18:35;7.40;;;2.80;;
3274;SDS011;1649;53.672;10.064;2022-10-16T03:21:01;5.93;;;2.10;;
3274;SDS011;1649;53.672;10.064;2022-10-16T03:23:26;5.67;;;2.60;;
3274;SDS011;1649;53.672;10.064;2022-10-16T03:25:52;7.60;;;2.67;;
3274;SDS011;1649;53.672;10.064;2022-10-16T03:28:18;7.60;;;2.50;;
3274;SDS011;1649;53.672;10.064;2022-10-16T03:30:44;7.70;;;2.70;;
3274;SDS011;1649;53.672;10.064;2022-10-16T03:33:09;11.70;;;3.63;;
3274;SDS011;1649;53.672;10.064;2022-10-16T03:35:35;5.13;;;2.40;;
3274;SDS011;1649;53.672;10.064;2022-10-16T03:38:00;6.23;;;2.57;;
3274;SDS011;1649;53.672;10.064;2022-10-16T03:40:26;7.47;;;2.80;;
3274;SDS011;1649;53.672;10.064;2022-10-16T03:42:51;8.13;;;2.93;;
3274;SDS011;1649;53.672;10.064;2022-10-16T03:45:20;7.43;;;2.53;;
3274;SDS011;1649;53.672;10.064;2022-10-16T03:47:45;6.33;;;2.90;;
3274;SDS011;1649;53.672;10.064;2022-10-16T03:50:12;7.23;;;2.87;;
3274;SDS011;1649;53.672;10.064;2022-10-16T03:52:37;5.77;;;2.40;;
3274;SDS011;1649;53.672;10.064;2022-10-16T03:55:03;5.73;;;2.40;;
3274;SDS011;1649;53.672;10.064;2022-10-16T03:57:29;5.63;;;2.43;;
3274;SDS011;1649;53.672;10.064;2022-10-16T03:59:54;7.33;;;2.70;;
3274;SDS011;1649;53.672;10.064;2022-10-16T04:02:20;6.03;;;2.53;;
3274;SDS011;1649;53.672;10.064;2022-10-16T04:04:45;7.97;;;2.40;;
3274;SDS011;1649;53.672;10.064;2022-10-16T04:07:11;6.40;;;2.37;;
3274;SDS011;1649;53.672;10.064;2022-10-16T04:09:36;5.30;;;2.33;;
3274;SDS011;1649;53.672;10.064;2022-10-16T04:12:02;7.60;;;2.63;;
3274;SDS011;1649;53.672;10.064;2022-10-16T04:14:27;6.20;;;2.47;;
3274;SDS011;1649;53.672;10.064;2022-10-16T04:16:53;5.93;;;2.40;;
3274;SDS011;1649;53.672;10.064;2022-10-16T04:19:18;5.73;;;2.40;;
3274;SDS011;1649;53.672;10.064;2022-10-16T04:21:44;6.33;;;2.13;;
3274;SDS011;1649;53.672;10.064;2022-10-16T04:24:09;6.10;;;2.83;;
3274;SDS011;1649;53.672;10.064;2022-10-16T04:26:36;5.20;;;2.40;;
3274;SDS011;1649;53.672;10.064;2022-10-16T04:29:02;5.63;;;2.27;;
3274;SDS011;1649;53.672;10.064;2022-10-16T04:31:27;5.67;;;2.60;;
3274;SDS011;1649;53.672;10.064;2022-10-16T04:33:53;5.37;;;2.10;;
3274;SDS011;1649;53.672;10.064;2022-10-16T04:36:18;6.63;;;2.27;;
3274;SDS011;1649;53.672;10.064;2022-10-16T04:38:44;6.20;;;2.33;;
3274;SDS011;1649;53.672;10.064;2022-10-16T04:41:09;5.70;;;2.30;;
3274;SDS011;1649;53.672;10.064;2022-10-16T04:43:35;5.83;;;2.30;;
3274;SDS011;1649;53.672;10.064;2022-10-16T04:46:00;7.13;;;2.00;;
3274;SDS011;1649;53.672;10.064;2022-10-16T04:48:26;8.20;;;2.30;;
3274;SDS011;1649;53.672;10.064;2022-10-16T04:50:52;5.77;;;2.50;;
3274;SDS011;1649;53.672;10.064;2022-10-16T04:53:17;8.50;;;2.70;;
3274;SDS011;1649;53.672;10.064;2022-10-16T04:55:43;6.60;;;2.63;;
3274;SDS011;1649;53.672;10.064;2022-10-16T04:58:08;9.33;;;2.80;;
3274;SDS011;1649;53.672;10.064;2022-10-16T05:00:34;6.37;;;2.67;;
3274;SDS011;1649;53.672;10.064;2022-10-16T05:03:00;8.13;;;2.73;;
3274;SDS011;1649;53.672;10.064;2022-10-16T05:05:27;8.60;;;2.63;;
3274;SDS011;1649;53.672;10.064;2022-10-16T05:07:53;5.70;;;2.90;;
3274;SDS011;1649;53.672;10.064;2022-10-16T05:10:18;6.20;;;2.70;;
3274;SDS011;1649;53.672;10.064;2022-10-16T05:12:46;6.17;;;2.53;;
3274;SDS011;1649;53.672;10.064;2022-10-16T05:15:11;8.20;;;3.30;;
3274;SDS011;1649;53.672;10.064;2022-10-16T05:17:37;6.03;;;3.27;;
3274;SDS011;1649;53.672;10.064;2022-10-16T05:20:03;8.37;;;3.27;;
3274;SDS011;1649;53.672;10.064;2022-10-16T05:22:29;7.20;;;3.10;;
3274;SDS011;1649;53.672;10.064;2022-10-16T05:24:54;10.03;;;3.50;;
3274;SDS011;1649;53.672;10.064;2022-10-16T05:27:20;7.13;;;3.33;;
3274;SDS011;1649;53.672;10.064;2022-10-16T05:29:46;7.70;;;3.83;;
3274;SDS011;1649;53.672;10.064;2022-10-16T05:32:12;8.03;;;3.43;;
3274;SDS011;1649;53.672;10.064;2022-10-16T05:34:39;5.83;;;3.40;;
3274;SDS011;1649;53.672;10.064;2022-10-16T05:37:04;5.73;;;3.20;;
3274;SDS011;1649;53.672;10.064;2022-10-16T05:39:30;7.03;;;3.40;;
3274;SDS011;1649;53.672;10.064;2022-10-16T05:41:55;9.03;;;3.27;;
3274;SDS011;1649;53.672;10.064;2022-10-16T05:44:21;8.30;;;3.40;;
3274;SDS011;1649;53.672;10.064;2022-10-16T05:46:47;6.93;;;3.27;;
3274;SDS011;1649;53.672;10.064;2022-10-16T05:49:12;9.77;;;3.73;;
3274;SDS011;1649;53.672;10.064;2022-10-16T05:51:38;7.23;;;3.70;;
3274;SDS011;1649;53.672;10.064;2022-10-16T05:54:03;6.43;;;3.40;;
3274;SDS011;1649;53.672;10.064;2022-10-16T05:56:28;9.63;;;3.80;;
3274;SDS011;1649;53.672;10.064;2022-10-16T05:58:54;12.73;;;3.70;;
3274;SDS011;1649;53.672;10.064;2022-10-16T06:01:20;5.97;;;3.30;;
3274;SDS011;1649;53.672;10.064;2022-10-16T06:03:48;8.83;;;3.93;;
3274;SDS011;1649;53.672;10.064;2022-10-16T06:06:16;6.80;;;3.77;;
3274;SDS011;1649;53.672;10.064;2022-10-16T06:08:43;11.63;;;3.60;;
3274;SDS011;1649;53.672;10.064;2022-10-16T06:11:11;7.60;;;3.80;;
3274;SDS011;1649;53.672;10.064;2022-10-16T06:13:39;10.07;;;3.43;;
3274;SDS011;1649;53.672;10.064;2022-10-16T06:16:07;6.30;;;2.57;;
3274;SDS011;1649;53.672;10.064;2022-10-16T06:18:33;6.03;;;2.77;;
3274;SDS011;1649;53.672;10.064;2022-10-16T06:20:59;6.40;;;3.07;;
3274;SDS011;1649;53.672;10.064;2022-10-16T06:23:25;7.83;;;2.90;;
3274;SDS011;1649;53.672;10.064;2022-10-16T06:25:53;7.07;;;2.70;;
3274;SDS011;1649;53.672;10.064;2022-10-16T06:28:18;5.13;;;2.50;;
3274;SDS011;1649;53.672;10.064;2022-10-16T06:30:44;7.07;;;2.80;;
3274;SDS011;1649;53.672;10.064;2022-10-16T06:33:10;7.20;;;2.80;;
3274;SDS011;1649;53.672;10.064;2022-10-16T06:35:36;7.00;;;2.90;;
3274;SDS011;1649;53.672;10.064;2022-10-16T06:38:02;5.73;;;2.60;;
3274;SDS011;1649;53.672;10.064;2022-10-16T06:40:27;8.73;;;2.90;;
3274;SDS011;1649;53.672;10.064;2022-10-16T06:42:54;5.63;;;2.93;;
3274;SDS011;1649;53.672;10.064;2022-10-16T06:45:20;6.70;;;2.63;;
3274;SDS011;1649;53.672;10.064;2022-10-16T06:47:45;6.33;;;2.73;;
3274;SDS011;1649;53.672;10.064;2022-10-16T06:50:11;7.60;;;2.70;;
3274;SDS011;1649;53.672;10.064;2022-10-16T06:52:36;6.13;;;2.70;;
3274;SDS011;1649;53.672;10.064;2022-10-16T06:55:02;8.10;;;2.80;;
3274;SDS011;1649;53.672;10.064;2022-10-16T06:57:28;6.83;;;2.80;;
3274;SDS011;1649;53.672;10.064;2022-10-16T06:59:53;8.80;;;2.83;;
3274;SDS011;1649;53.672;10.064;2022-10-16T07:02:19;6.90;;;2.60;;
3274;SDS011;1649;53.672;10.064;2022-10-16T07:04:44;5.70;;;2.70;;
3274;SDS011;1649;53.672;10.064;2022-10-16T07:07:10;6.70;;;2.93;;
3274;SDS011;1649;53.672;10.064;2022-10-16T07:09:35;6.40;;;2.67;;
3274;SDS011;1649;53.672;10.064;2022-10-16T07:12:01;5.70;;;2.90;;
3274;SDS011;1649;53.672;10.064;2022-10-16T07:14:26;6.27;;;2.83;;
3274;SDS011;1649;53.672;10.064;2022-10-16T07:16:52;6.13;;;2.60;;
3274;SDS011;1649;53.672;10.064;2022-10-16T07:19:18;6.43;;;2.63;;
3274;SDS011;1649;53.672;10.064;2022-10-16T07:21:43;6.80;;;3.10;;
3274;SDS011;1649;53.672;10.064;2022-10-16T07:24:11;6.23;;;2.90;;
3274;SDS011;1649;53.672;10.064;2022-10-16T07:26:38;6.73;;;2.73;;
3274;SDS011;1649;53.672;10.064;2022-10-16T07:29:05;6.57;;;3.03;;
3274;SDS011;1649;53.672;10.064;2022-10-16T07:31:36;8.87;;;3.40;;
3274;SDS011;1649;53.672;10.064;2022-10-16T07:34:01;7.50;;;2.97;;
3274;SDS011;1649;53.672;10.064;2022-10-16T07:36:27;7.93;;;3.10;;
3274;SDS011;1649;53.672;10.064;2022-10-16T07:38:52;6.87;;;2.80;;
3274;SDS011;1649;53.672;10.064;2022-10-16T07:41:19;6.70;;;3.50;;
3274;SDS011;1649;53.672;10.064;2022-10-16T07:43:45;10.17;;;2.97;;
3274;SDS011;1649;53.672;10.064;2022-10-16T07:46:12;6.40;;;3.43;;
3274;SDS011;1649;53.672;10.064;2022-10-16T07:48:38;6.40;;;3.10;;
3274;SDS011;1649;53.672;10.064;2022-10-16T07:51:04;6.70;;;3.30;;
3274;SDS011;1649;53.672;10.064;2022-10-16T07:53:31;7.80;;;3.60;;
3274;SDS011;1649;53.672;10.064;2022-10-16T07:55:58;6.70;;;3.30;;
3274;SDS011;1649;53.672;10.064;2022-10-16T07:58:24;9.60;;;4.20;;
3274;SDS011;1649;53.672;10.064;2022-10-16T08:00:50;7.83;;;3.23;;
3274;SDS011;1649;53.672;10.064;2022-10-16T08:03:16;5.50;;;3.07;;
3274;SDS011;1649;53.672;10.064;2022-10-16T08:05:41;6.50;;;3.47;;
3274;SDS011;1649;53.672;10.064;2022-10-16T08:08:10;6.67;;;3.70;;
3274;SDS011;1649;53.672;10.064;2022-10-16T08:10:38;7.97;;;3.50;;
3274;SDS011;1649;53.672;10.064;2022-10-16T08:13:03;8.80;;;3.57;;
3274;SDS011;1649;53.672;10.064;2022-10-16T08:15:28;6.63;;;3.60;;
3274;SDS011;1649;53.672;10.064;2022-10-16T08:17:55;7.37;;;3.47;;
3274;SDS011;1649;53.672;10.064;2022-10-16T08:20:21;5.60;;;3.17;;
3274;SDS011;1649;53.672;10.064;2022-10-16T08:22:47;8.53;;;4.00;;
3274;SDS011;1649;53.672;10.064;2022-10-16T08:25:12;7.57;;;2.90;;
3274;SDS011;1649;53.672;10.064;2022-10-16T08:27:38;8.00;;;3.70;;
3274;SDS011;1649;53.672;10.064;2022-10-16T08:30:03;7.63;;;3.20;;
3274;SDS011;1649;53.672;10.064;2022-10-16T08:32:29;6.80;;;3.20;;
3274;SDS011;1649;53.672;10.064;2022-10-16T08:34:54;7.40;;;3.00;;
3274;SDS011;1649;53.672;10.064;2022-10-16T08:37:20;7.77;;;2.93;;
3274;SDS011;1649;53.672;10.064;2022-10-16T08:39:45;7.03;;;3.23;;
3274;SDS011;1649;53.672;10.064;2022-10-16T08:42:15;5.70;;;3.33;;
3274;SDS011;1649;53.672;10.064;2022-10-16T08:50:23;7.10;;;3.57;;
3274;SDS011;1649;53.672;10.064;2022-10-16T08:52:52;7.37;;;3.20;;
3274;SDS011;1649;53.672;10.064;2022-10-16T08:56:01;5.80;;;3.13;;
3274;SDS011;1649;53.672;10.064;2022-10-16T08:58:15;8.63;;;3.50;;
3274;SDS011;1649;53.672;10.064;2022-10-16T09:00:46;6.20;;;3.37;;
3274;SDS011;1649;53.672;10.064;2022-10-16T09:05:52;7.20;;;3.33;;
3274;SDS011;1649;53.672;10.064;2022-10-16T09:08:41;6.10;;;2.90;;
3274;SDS011;1649;53.672;10.064;2022-10-16T09:16:57;5.87;;;2.77;;
3274;SDS011;1649;53.672;10.064;2022-10-16T09:21:59;5.90;;;2.50;;
3274;SDS011;1649;53.672;10.064;2022-10-16T09:24:35;7.83;;;2.83;;
3274;SDS011;1649;53.672;10.064;2022-10-16T09:27:01;6.97;;;2.60;;
3274;SDS011;1649;53.672;10.064;2022-10-16T09:29:27;7.73;;;2.40;;
3274;SDS011;1649;53.672;10.064;2022-10-16T09:31:53;10.70;;;2.23;;
3274;SDS011;1649;53.672;10.064;2022-10-16T09:37:01;5.80;;;2.07;;
3274;SDS011;1649;53.672;10.064;2022-10-16T09:39:30;5.57;;;2.50;;
3274;SDS011;1649;53.672;10.064;2022-10-16T09:42:09;6.80;;;2.07;;
3274;SDS011;1649;53.672;10.064;2022-10-16T09:44:38;6.47;;;2.00;;
3274;SDS011;1649;53.672;10.064;2022-10-16T09:47:05;6.57;;;2.03;;
3274;SDS011;1649;53.672;10.064;2022-10-16T09:49:36;6.30;;;2.10;;
3274;SDS011;1649;53.672;10.064;2022-10-16T09:52:03;4.73;;;1.70;;
3274;SDS011;1649;53.672;10.064;2022-10-16T09:54:30;4.90;;;1.80;;
3274;SDS011;1649;53.672;10.064;2022-10-16T09:57:04;6.10;;;1.80;;
3274;SDS011;1649;53.672;10.064;2022-10-16T09:59:45;5.90;;;1.80;;
3274;SDS011;1649;53.672;10.064;2022-10-16T10:02:16;4.00;;;1.40;;
3274;SDS011;1649;53.672;10.064;2022-10-16T10:05:01;6.73;;;2.10;;
3274;SDS011;1649;53.672;10.064;2022-10-16T10:07:32;5.27;;;1.60;;
3274;SDS011;1649;53.672;10.064;2022-10-16T10:10:01;6.67;;;1.80;;
3274;SDS011;1649;53.672;10.064;2022-10-16T10:12:30;5.47;;;1.90;;
3274;SDS011;1649;53.672;10.064;2022-10-16T10:15:02;5.63;;;1.80;;
3274;SDS011;1649;53.672;10.064;2022-10-16T10:17:30;7.17;;;1.80;;
3274;SDS011;1649;53.672;10.064;2022-10-16T10:20:18;8.83;;;1.93;;
3274;SDS011;1649;53.672;10.064;2022-10-16T10:22:46;5.50;;;2.10;;
3274;SDS011;1649;53.672;10.064;2022-10-16T10:30:44;5.23;;;1.80;;
3274;SDS011;1649;53.672;10.064;2022-10-16T10:36:27;5.87;;;1.83;;
3274;SDS011;1649;53.672;10.064;2022-10-16T10:55:09;6.70;;;1.70;;
3274;SDS011;1649;53.672;10.064;2022-10-16T11:00:16;7.53;;;2.00;;
3274;SDS011;1649;53.672;10.064;2022-10-16T11:02:50;5.07;;;1.40;;
3274;SDS011;1649;53.672;10.064;2022-10-16T11:08:28;6.23;;;1.83;;
3274;SDS011;1649;53.672;10.064;2022-10-16T11:11:00;13.10;;;2.20;;
3274;SDS011;1649;53.672;10.064;2022-10-16T11:13:57;6.33;;;1.60;;
3274;SDS011;1649;53.672;10.064;2022-10-16T11:16:31;4.50;;;1.60;;
3274;SDS011;1649;53.672;10.064;2022-10-16T11:19:35;3.90;;;1.20;;
3274;SDS011;1649;53.672;10.064;2022-10-16T11:21:59;4.23;;;1.37;;
3274;SDS011;1649;53.672;10.064;2022-10-16T11:27:19;5.10;;;1.40;;
3274;SDS011;1649;53.672;10.064;2022-10-16T11:29:53;4.00;;;1.10;;
3274;SDS011;1649;53.672;10.064;2022-10-16T11:32:27;6.53;;;1.80;;
3274;SDS011;1649;53.672;10.064;2022-10-16T11:34:57;5.40;;;1.10;;
3274;SDS011;1649;53.672;10.064;2022-10-16T11:37:31;7.03;;;1.57;;
3274;SDS011;1649;53.672;10.064;2022-10-16T11:40:16;5.63;;;1.60;;
3274;SDS011;1649;53.672;10.064;2022-10-16T11:42:50;7.30;;;1.47;;
3274;SDS011;1649;53.672;10.064;2022-10-16T11:45:36;4.30;;;1.10;;
3274;SDS011;1649;53.672;10.064;2022-10-16T11:53:55;5.43;;;1.40;;
3274;SDS011;1649;53.672;10.064;2022-10-16T11:56:40;4.73;;;1.30;;
3274;SDS011;1649;53.672;10.064;2022-10-16T12:01:44;5.60;;;1.40;;
3274;SDS011;1649;53.672;10.064;2022-10-16T12:04:20;5.20;;;1.53;;
3274;SDS011;1649;53.672;10.064;2022-10-16T12:07:03;3.90;;;1.53;;
3274;SDS011;1649;53.672;10.064;2022-10-16T12:09:37;5.40;;;1.47;;
3274;SDS011;1649;53.672;10.064;2022-10-16T12:12:04;8.67;;;1.50;;
3274;SDS011;1649;53.672;10.064;2022-10-16T12:14:48;5.00;;;1.50;;
3274;SDS011;1649;53.672;10.064;2022-10-16T12:22:40;6.60;;;1.67;;
3274;SDS011;1649;53.672;10.064;2022-10-16T12:25:20;6.67;;;1.57;;
3274;SDS011;1649;53.672;10.064;2022-10-16T12:27:53;8.50;;;1.60;;
3274;SDS011;1649;53.672;10.064;2022-10-16T12:30:24;5.47;;;1.67;;
3274;SDS011;1649;53.672;10.064;2022-10-16T12:32:55;5.30;;;1.60;;
3274;SDS011;1649;53.672;10.064;2022-10-16T12:35:30;7.37;;;1.57;;
3274;SDS011;1649;53.672;10.064;2022-10-16T12:38:06;7.77;;;1.90;;
3274;SDS011;1649;53.672;10.064;2022-10-16T12:40:37;10.00;;;1.53;;
3274;SDS011;1649;53.672;10.064;2022-10-16T12:43:13;8.73;;;1.43;;
3274;SDS011;1649;53.672;10.064;2022-10-16T12:46:01;4.73;;;1.30;;
3274;SDS011;1649;53.672;10.064;2022-10-16T12:48:29;5.47;;;1.37;;
3274;SDS011;1649;53.672;10.064;2022-10-16T12:50:55;7.57;;;1.50;;
3274;SDS011;1649;53.672;10.064;2022-10-16T12:53:22;5.67;;;1.33;;
3274;SDS011;1649;53.672;10.064;2022-10-16T12:55:54;4.20;;;1.20;;
3274;SDS011;1649;53.672;10.064;2022-10-16T12:58:46;4.90;;;1.37;;
3274;SDS011;1649;53.672;10.064;2022-10-16T13:04:16;5.17;;;1.30;;
3274;SDS011;1649;53.672;10.064;2022-10-16T13:07:17;6.77;;;1.60;;
3274;SDS011;1649;53.672;10.064;2022-10-16T13:12:57;5.10;;;1.37;;
3274;SDS011;1649;53.672;10.064;2022-10-16T13:21:29;4.90;;;1.10;;
3274;SDS011;1649;53.672;10.064;2022-10-16T13:24:10;5.00;;;1.43;;
3274;SDS011;1649;53.672;10.064;2022-10-16T13:27:04;5.40;;;1.27;;
3274;SDS011;1649;53.672;10.064;2022-10-16T13:29:38;4.87;;;1.30;;
3274;SDS011;1649;53.672;10.064;2022-10-16T13:32:07;6.97;;;1.70;;
3274;SDS011;1649;53.672;10.064;2022-10-16T13:34:43;11.40;;;1.53;;
3274;SDS011;1649;53.672;10.064;2022-10-16T13:37:20;7.43;;;1.60;;
3274;SDS011;1649;53.672;10.064;2022-10-16T13:39:48;5.80;;;1.40;;
3274;SDS011;1649;53.672;10.064;2022-10-16T13:42:21;4.63;;;1.40;;
3274;SDS011;1649;53.672;10.064;2022-10-16T13:44:51;4.73;;;1.50;;
3274;SDS011;1649;53.672;10.064;2022-10-16T13:47:22;5.63;;;1.80;;
3274;SDS011;1649;53.672;10.064;2022-10-16T13:52:37;4.33;;;1.27;;
3274;SDS011;1649;53.672;10.064;2022-10-16T13:55:04;5.97;;;1.83;;
3274;SDS011;1649;53.672;10.064;2022-10-16T13:57:40;6.03;;;1.40;;
3274;SDS011;1649;53.672;10.064;2022-10-16T14:00:28;8.30;;;1.43;;
3274;SDS011;1649;53.672;10.064;2022-10-16T14:03:05;5.23;;;1.30;;
3274;SDS011;1649;53.672;10.064;2022-10-16T14:05:42;8.80;;;1.43;;
3274;SDS011;1649;53.672;10.064;2022-10-16T14:08:16;8.53;;;1.80;;
3274;SDS011;1649;53.672;10.064;2022-10-16T14:10:42;5.13;;;1.23;;
3274;SDS011;1649;53.672;10.064;2022-10-16T14:13:07;6.97;;;1.47;;
3274;SDS011;1649;53.672;10.064;2022-10-16T14:15:40;5.33;;;1.37;;
3274;SDS011;1649;53.672;10.064;2022-10-16T14:18:17;4.93;;;1.20;;
3274;SDS011;1649;53.672;10.064;2022-10-16T14:20:45;6.40;;;1.37;;
3274;SDS011;1649;53.672;10.064;2022-10-16T14:23:28;6.00;;;1.37;;
3274;SDS011;1649;53.672;10.064;2022-10-16T14:26:56;4.80;;;1.10;;
3274;SDS011;1649;53.672;10.064;2022-10-16T14:29:10;6.77;;;1.33;;
3274;SDS011;1649;53.672;10.064;2022-10-16T14:31:37;6.63;;;1.33;;
3274;SDS011;1649;53.672;10.064;2022-10-16T14:34:04;4.60;;;1.30;;
3274;SDS011;1649;53.672;10.064;2022-10-16T14:36:47;5.70;;;1.50;;
3274;SDS011;1649;53.672;10.064;2022-10-16T14:39:15;5.10;;;1.20;;
3274;SDS011;1649;53.672;10.064;2022-10-16T14:41:45;5.67;;;1.70;;
3274;SDS011;1649;53.672;10.064;2022-10-16T14:44:12;4.70;;;1.20;;
3274;SDS011;1649;53.672;10.064;2022-10-16T14:46:42;7.30;;;1.33;;
3274;SDS011;1649;53.672;10.064;2022-10-16T14:51:37;8.07;;;1.50;;
3274;SDS011;1649;53.672;10.064;2022-10-16T14:54:07;6.50;;;1.40;;
3274;SDS011;1649;53.672;10.064;2022-10-16T14:56:35;6.83;;;1.17;;
3274;SDS011;1649;53.672;10.064;2022-10-16T14:59:14;7.40;;;1.60;;
3274;SDS011;1649;53.672;10.064;2022-10-16T15:01:43;5.57;;;1.57;;
3274;SDS011;1649;53.672;10.064;2022-10-16T15:04:10;6.20;;;1.40;;
3274;SDS011;1649;53.672;10.064;2022-10-16T15:06:37;5.83;;;1.27;;
3274;SDS011;1649;53.672;10.064;2022-10-16T15:09:03;5.20;;;1.23;;
3274;SDS011;1649;53.672;10.064;2022-10-16T15:11:28;7.93;;;1.40;;
3274;SDS011;1649;53.672;10.064;2022-10-16T15:13:57;4.27;;;1.37;;
3274;SDS011;1649;53.672;10.064;2022-10-16T15:16:22;5.70;;;1.77;;
3274;SDS011;1649;53.672;10.064;2022-10-16T15:18:48;9.03;;;2.27;;
3274;SDS011;1649;53.672;10.064;2022-10-16T15:21:19;6.97;;;1.50;;
3274;SDS011;1649;53.672;10.064;2022-10-16T15:23:49;7.87;;;1.37;;
3274;SDS011;1649;53.672;10.064;2022-10-16T15:26:15;5.30;;;1.80;;
3274;SDS011;1649;53.672;10.064;2022-10-16T15:28:41;5.83;;;1.57;;
3274;SDS011;1649;53.672;10.064;2022-10-16T15:31:06;5.67;;;1.50;;
3274;SDS011;1649;53.672;10.064;2022-10-16T15:33:32;6.00;;;1.50;;
3274;SDS011;1649;53.672;10.064;2022-10-16T15:35:59;6.23;;;1.50;;
3274;SDS011;1649;53.672;10.064;2022-10-16T15:38:25;10.23;;;1.83;;
3274;SDS011;1649;53.672;10.064;2022-10-16T15:40:52;5.77;;;1.57;;
3274;SDS011;1649;53.672;10.064;2022-10-16T15:43:17;5.47;;;1.77;;
3274;SDS011;1649;53.672;10.064;2022-10-16T15:45:43;6.27;;;1.60;;
3274;SDS011;1649;53.672;10.064;2022-10-16T15:48:10;8.67;;;2.00;;
3274;SDS011;1649;53.672;10.064;2022-10-16T15:50:38;6.20;;;1.53;;
3274;SDS011;1649;53.672;10.064;2022-10-16T15:53:04;6.80;;;1.93;;
3274;SDS011;1649;53.672;10.064;2022-10-16T15:55:30;6.93;;;1.77;;
3274;SDS011;1649;53.672;10.064;2022-10-16T15:57:55;5.80;;;1.70;;
3274;SDS011;1649;53.672;10.064;2022-10-16T16:00:21;7.00;;;1.80;;
3274;SDS011;1649;53.672;10.064;2022-10-16T16:02:54;6.60;;;1.80;;
3274;SDS011;1649;53.672;10.064;2022-10-16T16:05:20;4.97;;;1.70;;
3274;SDS011;1649;53.672;10.064;2022-10-16T16:07:47;8.43;;;2.00;;
3274;SDS011;1649;53.672;10.064;2022-10-16T16:10:13;7.70;;;2.07;;
3274;SDS011;1649;53.672;10.064;2022-10-16T16:12:39;6.90;;;1.73;;
3274;SDS011;1649;53.672;10.064;2022-10-16T16:15:05;7.57;;;2.50;;
3274;SDS011;1649;53.672;10.064;2022-10-16T16:17:31;6.47;;;2.47;;
3274;SDS011;1649;53.672;10.064;2022-10-16T16:19:58;8.43;;;2.57;;
3274;SDS011;1649;53.672;10.064;2022-10-16T16:22:23;8.60;;;2.83;;
3274;SDS011;1649;53.672;10.064;2022-10-16T16:24:49;14.30;;;3.57;;
3274;SDS011;1649;53.672;10.064;2022-10-16T16:27:14;10.33;;;3.73;;
3274;SDS011;1649;53.672;10.064;2022-10-16T16:29:40;8.90;;;3.97;;
3274;SDS011;1649;53.672;10.064;2022-10-16T16:32:06;9.90;;;4.20;;
3274;SDS011;1649;53.672;10.064;2022-10-16T16:34:32;9.93;;;3.97;;
3274;SDS011;1649;53.672;10.064;2022-10-16T16:36:57;9.27;;;3.87;;
3274;SDS011;1649;53.672;10.064;2022-10-16T16:39:23;9.60;;;4.33;;
3274;SDS011;1649;53.672;10.064;2022-10-16T16:41:49;12.47;;;4.77;;
3274;SDS011;1649;53.672;10.064;2022-10-16T16:44:15;7.40;;;3.63;;
3274;SDS011;1649;53.672;10.064;2022-10-16T16:46:42;11.17;;;5.20;;
3274;SDS011;1649;53.672;10.064;2022-10-16T16:49:09;9.23;;;4.10;;